Time;durP1;ratioP1;P1;durP2;ratioP2;P2;SDS_P1;SDS_P2;PMS_P1;PMS_P2;Temp;Humidity;BMP_temperature;BMP_pressure;BME280_temperature;BME280_humidity;BME280_pressure;Samples;Min_cycle;Max_cycle;Signal;HPM_P1;HPM_P2
2022/09/10 00:01:34;;;;;;;18.65;12.57;;;15.80;99.90;;;;;;9857056;30;20039;-84
2022/09/10 00:06:37;;;;;;;21.60;13.52;;;15.80;99.90;;;;;;9852346;30;20056;-86
2022/09/10 00:11:39;;;;;;;18.40;13.23;;;15.90;99.90;;;;;;9851765;30;20052;-84
2022/09/10 00:16:40;;;;;;;19.65;14.05;;;15.90;99.90;;;;;;9842662;30;20131;-85
2022/09/10 00:21:43;;;;;;;21.13;15.30;;;15.80;99.90;;;;;;9853177;30;20077;-84
2022/09/10 00:26:44;;;;;;;21.52;16.05;;;15.70;99.90;;;;;;9828969;30;20047;-87
2022/09/10 00:31:45;;;;;;;19.90;13.70;;;15.70;99.90;;;;;;9860193;30;20126;-86
2022/09/10 00:36:45;;;;;;;21.13;14.95;;;15.80;99.90;;;;;;9858057;30;20361;-84
2022/09/10 00:41:47;;;;;;;21.88;14.90;;;15.80;99.90;;;;;;9843705;30;21158;-86
2022/09/10 00:46:50;;;;;;;18.88;13.48;;;15.90;99.90;;;;;;9841900;30;20052;-86
2022/09/10 00:51:52;;;;;;;13.95;9.20;;;15.90;99.90;;;;;;9860363;30;20039;-84
2022/09/10 00:56:55;;;;;;;10.73;7.22;;;15.90;99.90;;;;;;9843581;30;20036;-86
2022/09/10 01:01:58;;;;;;;13.35;7.38;;;15.90;99.90;;;;;;9854755;30;20047;-85
2022/09/10 01:07:00;;;;;;;9.15;6.22;;;15.90;99.90;;;;;;9838824;30;20040;-86
2022/09/10 01:12:20;;;;;;;11.05;6.97;;;15.90;99.90;;;;;;9843716;30;20186;-86
2022/09/10 01:17:47;;;;;;;11.57;6.50;;;15.90;99.90;;;;;;9859154;30;20039;-86
2022/09/10 01:23:26;;;;;;;7.15;5.85;;;15.90;99.90;;;;;;9857932;30;20067;-86
2022/09/10 01:28:36;;;;;;;11.77;5.70;;;15.90;99.90;;;;;;9860251;30;20525;-84
2022/09/10 01:33:46;;;;;;;9.02;6.47;;;15.80;99.90;;;;;;9841694;30;20036;-87
2022/09/10 01:38:48;;;;;;;5.95;4.80;;;15.80;99.90;;;;;;9855302;30;20040;-86
2022/09/10 01:43:49;;;;;;;9.05;5.47;;;15.70;99.90;;;;;;9858663;30;20120;-85
2022/09/10 01:49:17;;;;;;;7.60;5.30;;;15.70;99.90;;;;;;9853024;30;20519;-85
2022/09/10 01:54:27;;;;;;;8.93;5.13;;;15.60;99.90;;;;;;9835702;30;20044;-85
2022/09/10 01:59:42;;;;;;;5.38;3.72;;;15.40;99.90;;;;;;9860555;30;20528;-85
2022/09/10 02:04:45;;;;;;;6.40;4.20;;;15.30;99.90;;;;;;9847851;30;20039;-85
2022/09/10 02:09:45;;;;;;;6.00;4.22;;;15.20;99.90;;;;;;9864416;30;20363;-82
2022/09/10 02:14:55;;;;;;;7.68;4.18;;;15.20;99.90;;;;;;9864071;30;20048;-85
2022/09/10 02:19:57;;;;;;;8.60;4.95;;;15.20;99.90;;;;;;9864055;30;20097;-83
2022/09/10 02:24:57;;;;;;;7.78;4.90;;;15.20;99.90;;;;;;9862887;30;20481;-83
2022/09/10 02:29:58;;;;;;;7.25;4.80;;;15.20;99.90;;;;;;9848923;30;20055;-84
2022/09/10 02:34:58;;;;;;;6.95;4.57;;;15.20;99.90;;;;;;9863692;30;20512;-83
2022/09/10 02:39:59;;;;;;;6.03;4.90;;;15.20;99.90;;;;;;9858024;30;20044;-83
2022/09/10 02:45:00;;;;;;;7.43;5.13;;;15.20;99.90;;;;;;9860940;30;20140;-84
2022/09/10 02:50:01;;;;;;;7.95;5.03;;;15.20;99.90;;;;;;9856137;30;20485;-85
2022/09/10 02:55:01;;;;;;;8.85;5.07;;;15.30;99.90;;;;;;9860506;30;20117;-83
2022/09/10 03:00:03;;;;;;;8.55;5.20;;;15.30;99.90;;;;;;9859250;30;20527;-86
2022/09/10 03:05:03;;;;;;;10.02;5.05;;;15.30;99.90;;;;;;9844492;30;20047;-83
2022/09/10 03:10:05;;;;;;;8.60;5.50;;;15.30;99.90;;;;;;9845654;30;20047;-83
2022/09/10 03:15:06;;;;;;;7.78;5.63;;;15.30;99.90;;;;;;9862914;30;20171;-84
2022/09/10 03:20:07;;;;;;;9.98;5.40;;;15.30;99.90;;;;;;9843654;30;20055;-83
2022/09/10 03:25:07;;;;;;;7.40;5.18;;;15.30;99.90;;;;;;9862969;30;20028;-83
2022/09/10 03:30:09;;;;;;;7.45;5.28;;;15.30;99.90;;;;;;9861808;30;20028;-83
2022/09/10 03:35:09;;;;;;;5.95;4.93;;;15.30;99.90;;;;;;9861303;30;20039;-84
2022/09/10 03:40:10;;;;;;;7.78;5.20;;;15.30;99.90;;;;;;9862110;30;20496;-83
2022/09/10 03:45:12;;;;;;;4.63;4.10;;;15.40;99.90;;;;;;9860435;30;20070;-83
2022/09/10 03:50:13;;;;;;;7.75;4.70;;;15.40;99.90;;;;;;9845225;30;20070;-83
2022/09/10 03:55:13;;;;;;;6.43;4.68;;;15.40;99.90;;;;;;9846351;30;20126;-84
2022/09/10 04:00:15;;;;;;;5.38;4.63;;;15.40;99.90;;;;;;9844863;30;20138;-85
2022/09/10 04:05:16;;;;;;;6.15;5.15;;;15.40;99.90;;;;;;9859924;30;20512;-85
2022/09/10 04:10:19;;;;;;;9.38;5.72;;;15.40;99.90;;;;;;9844431;30;20035;-84
2022/09/10 04:15:20;;;;;;;5.85;5.25;;;15.30;99.90;;;;;;9858646;30;20496;-84
2022/09/10 04:20:22;;;;;;;7.45;5.50;;;15.30;99.90;;;;;;9853039;30;20409;-83
2022/09/10 04:25:23;;;;;;;9.82;5.65;;;15.30;99.90;;;;;;9857742;30;20035;-82
2022/09/10 04:30:23;;;;;;;6.30;4.80;;;15.30;99.90;;;;;;9858651;30;20070;-83
2022/09/10 04:35:25;;;;;;;6.90;4.78;;;15.30;99.90;;;;;;9838668;30;20034;-83
2022/09/10 04:40:26;;;;;;;5.35;4.55;;;15.30;99.90;;;;;;9859965;30;20047;-81
2022/09/10 04:45:27;;;;;;;6.85;5.00;;;15.30;99.90;;;;;;9859598;30;20497;-84
2022/09/10 04:50:27;;;;;;;6.57;4.72;;;15.20;99.90;;;;;;9860172;30;20104;-83
2022/09/10 04:55:30;;;;;;;9.82;5.70;;;15.20;99.90;;;;;;9858678;30;20389;-84
2022/09/10 05:00:31;;;;;;;10.88;6.05;;;15.10;99.90;;;;;;9859447;30;20071;-84
2022/09/10 05:05:32;;;;;;;11.05;7.00;;;15.00;99.90;;;;;;9841073;30;20033;-81
2022/09/10 05:10:35;;;;;;;10.07;7.10;;;15.10;99.90;;;;;;9857731;30;20059;-82
2022/09/10 05:15:39;;;;;;;11.15;8.15;;;15.10;99.90;;;;;;9853452;30;20028;-80
2022/09/10 05:20:43;;;;;;;12.65;8.48;;;15.00;99.90;;;;;;9856684;30;20051;-80
2022/09/10 05:25:44;;;;;;;17.48;9.95;;;15.00;99.90;;;;;;9858255;30;20060;-81
2022/09/10 05:30:44;;;;;;;20.02;11.55;;;15.00;99.90;;;;;;9859668;30;20039;-81
2022/09/10 05:35:47;;;;;;;24.02;11.55;;;15.00;99.90;;;;;;9856243;30;20806;-80
2022/09/10 05:40:49;;;;;;;17.30;10.23;;;14.80;99.90;;;;;;9859271;30;20838;-80
2022/09/10 05:45:51;;;;;;;24.02;11.95;;;14.80;99.90;;;;;;9863992;30;20052;-81
2022/09/10 05:50:51;;;;;;;18.40;11.00;;;14.80;99.90;;;;;;9866069;30;20441;-82
2022/09/10 05:55:52;;;;;;;20.17;11.07;;;14.60;99.90;;;;;;9860602;30;20143;-80
2022/09/10 06:00:57;;;;;;;24.48;12.48;;;14.50;99.90;;;;;;9863950;30;20511;-83
2022/09/10 06:05:57;;;;;;;20.27;11.40;;;14.50;99.90;;;;;;9866145;30;20036;-80
2022/09/10 06:11:03;;;;;;;25.42;14.18;;;14.40;99.90;;;;;;9849555;30;20046;-81
2022/09/10 06:16:06;;;;;;;23.60;14.00;;;14.30;99.90;;;;;;9862939;30;20040;-82
2022/09/10 06:21:14;;;;;;;26.50;13.35;;;14.30;99.90;;;;;;9864467;30;20040;-80
2022/09/10 06:26:17;;;;;;;27.40;14.20;;;14.20;99.90;;;;;;9863496;30;20020;-81
2022/09/10 06:31:18;;;;;;;31.92;15.43;;;14.20;99.90;;;;;;9861099;30;20036;-80
2022/09/10 06:36:19;;;;;;;30.60;14.63;;;14.20;99.90;;;;;;9861402;30;20120;-80
2022/09/10 06:41:19;;;;;;;25.92;12.93;;;14.20;99.90;;;;;;9862385;30;20182;-80
2022/09/10 06:46:20;;;;;;;30.65;15.00;;;14.30;99.90;;;;;;9859256;30;20063;-80
2022/09/10 06:51:20;;;;;;;25.70;13.43;;;14.30;99.90;;;;;;9863164;30;20432;-82
2022/09/10 06:56:21;;;;;;;24.77;12.43;;;14.30;99.90;;;;;;9862631;30;20043;-80
2022/09/10 07:01:24;;;;;;;19.70;10.32;;;14.30;99.90;;;;;;9864434;30;20393;-80
2022/09/10 07:06:26;;;;;;;20.98;10.93;;;14.40;99.90;;;;;;9865055;30;20393;-80
2022/09/10 07:11:29;;;;;;;17.77;8.57;;;14.40;99.90;;;;;;9864096;30;20046;-80
2022/09/10 07:16:29;;;;;;;11.85;7.60;;;14.70;99.90;;;;;;9864594;30;20098;-82
2022/09/10 07:21:30;;;;;;;9.18;5.53;;;14.80;99.90;;;;;;9850650;30;20047;-80
2022/09/10 07:26:31;;;;;;;11.75;6.25;;;14.80;99.90;;;;;;9854107;30;20026;-80
2022/09/10 07:31:34;;;;;;;10.68;6.57;;;14.90;99.90;;;;;;9856606;30;20039;-80
2022/09/10 07:36:34;;;;;;;9.57;6.03;;;15.10;99.90;;;;;;9856411;30;20575;-80
2022/09/10 07:41:35;;;;;;;11.38;6.78;;;15.30;99.90;;;;;;9855427;30;20146;-84
2022/09/10 07:46:36;;;;;;;13.35;7.88;;;15.50;99.90;;;;;;9853576;30;20524;-80
2022/09/10 07:51:38;;;;;;;13.50;8.15;;;15.60;99.90;;;;;;9855448;30;20024;-82
2022/09/10 07:56:38;;;;;;;16.95;7.60;;;15.80;99.90;;;;;;9848418;30;20074;-80
2022/09/10 08:01:39;;;;;;;14.55;7.50;;;15.80;99.90;;;;;;9849697;30;20138;-80
2022/09/10 08:06:40;;;;;;;13.80;7.70;;;15.90;99.90;;;;;;9840722;30;20186;-82
2022/09/10 08:11:41;;;;;;;18.88;9.43;;;15.90;99.90;;;;;;9852304;30;20055;-80
2022/09/10 08:16:41;;;;;;;18.13;9.60;;;16.00;99.90;;;;;;9859573;30;20516;-80
2022/09/10 08:21:43;;;;;;;17.13;9.18;;;16.10;99.90;;;;;;9860618;30;20051;-79
2022/09/10 08:26:43;;;;;;;12.85;7.50;;;16.30;99.90;;;;;;9843983;30;20112;-82
2022/09/10 08:31:44;;;;;;;12.68;8.23;;;16.50;99.90;;;;;;9860694;30;20047;-81
2022/09/10 08:36:45;;;;;;;11.23;6.57;;;16.50;99.90;;;;;;9858964;30;20039;-79
2022/09/10 08:42:39;;;;;;;9.93;6.72;;;16.60;99.90;;;;;;9855851;30;20052;-80
2022/09/10 08:47:47;;;;;;;11.73;7.80;;;16.70;99.90;;;;;;9860151;30;20506;-79
2022/09/10 08:52:56;;;;;;;11.05;7.03;;;16.70;99.90;;;;;;9856494;30;20115;-80
2022/09/10 08:58:03;;;;;;;11.30;7.35;;;16.80;99.90;;;;;;9840591;30;20465;-81
2022/09/10 09:03:09;;;;;;;10.95;5.80;;;16.80;99.90;;;;;;9857054;30;20046;-80
2022/09/10 09:08:11;;;;;;;;;;;16.70;99.90;;;;;;9860511;30;20074;-81
2022/09/10 09:13:25;;;;;;;9.52;6.45;;;16.70;99.90;;;;;;9866837;30;19928;-81
2022/09/10 09:19:04;;;;;;;16.65;8.88;;;16.60;99.90;;;;;;9863518;30;20580;-81
2022/09/10 09:24:21;;;;;;;10.75;6.47;;;16.60;99.90;;;;;;9865758;30;20054;-81
2022/09/10 09:29:36;;;;;;;12.02;7.40;;;16.60;99.90;;;;;;9845034;30;20101;-80
2022/09/10 09:35:01;;;;;;;;;;;16.70;99.90;;;;;;9863948;30;20044;-81
2022/09/10 09:40:30;;;;;;;12.70;6.78;;;17.10;99.90;;;;;;9849829;30;19925;-79
2022/09/10 09:45:42;;;;;;;10.68;6.30;;;17.30;99.90;;;;;;9865070;30;20060;-81
2022/09/10 09:50:46;;;;;;;8.65;5.45;;;17.40;99.90;;;;;;9850767;30;20066;-81
2022/09/10 09:55:53;;;;;;;9.00;5.97;;;17.60;99.90;;;;;;9869248;30;20044;-81
2022/09/10 10:01:09;;;;;;;7.18;4.40;;;17.60;99.90;;;;;;9862411;30;20052;-81
2022/09/10 10:06:11;;;;;;;6.65;4.30;;;18.20;99.90;;;;;;9858198;30;20036;-81
2022/09/10 10:11:16;;;;;;;6.72;4.10;;;18.70;99.90;;;;;;9862978;30;20040;-80
2022/09/10 10:16:32;;;;;;;3.25;2.88;;;18.60;99.90;;;;;;9862953;30;20086;-80
2022/09/10 10:21:33;;;;;;;6.03;3.70;;;18.80;99.90;;;;;;9861762;30;20075;-81
2022/09/10 10:26:35;;;;;;;3.33;2.45;;;18.70;99.90;;;;;;9859846;30;20028;-82
2022/09/10 10:31:40;;;;;;;3.90;2.67;;;18.90;99.90;;;;;;9837659;30;20119;-81
2022/09/10 10:36:55;;;;;;;4.45;2.88;;;19.40;99.90;;;;;;9856883;30;20404;-81
2022/09/10 10:42:03;;;;;;;4.80;3.20;;;19.10;99.90;;;;;;9857629;30;20753;-81
2022/09/10 10:47:32;;;;;;;1.85;1.67;;;18.70;99.90;;;;;;9861763;30;20437;-81
2022/09/10 10:52:57;;;;;;;2.83;2.22;;;18.60;99.90;;;;;;9860750;30;20031;-81
2022/09/10 10:58:33;;;;;;;3.65;2.50;;;19.00;99.90;;;;;;9846009;30;20123;-85
2022/09/10 11:03:45;;;;;;;2.90;2.45;;;19.80;99.90;;;;;;9773182;30;20113;-82
2022/09/10 11:08:57;;;;;;;2.75;2.55;;;19.90;99.90;;;;;;9860782;30;20035;-80
2022/09/10 11:14:15;;;;;;;3.70;3.10;;;19.40;99.90;;;;;;9862244;30;20036;-84
2022/09/10 11:19:25;;;;;;;3.70;3.40;;;19.60;99.90;;;;;;9862597;30;20094;-82
2022/09/10 11:24:42;;;;;;;5.45;3.65;;;19.60;99.90;;;;;;9857228;30;20055;-82
2022/09/10 11:29:49;;;;;;;5.03;4.55;;;19.20;99.90;;;;;;9852456;30;20048;-82
2022/09/10 11:35:27;;;;;;;5.30;4.80;;;19.00;99.90;;;;;;9842762;30;20362;-82
2022/09/10 11:40:51;;;;;;;4.43;4.03;;;19.20;99.90;;;;;;9855081;30;20134;-82
2022/09/10 11:45:56;;;;;;;3.40;3.10;;;19.50;99.90;;;;;;9857649;30;20420;-83
2022/09/10 11:51:21;;;;;;;3.53;3.22;;;19.50;99.90;;;;;;9858047;30;20393;-82
2022/09/10 11:56:29;;;;;;;3.97;3.60;;;19.50;99.90;;;;;;9858887;30;20061;-82
2022/09/10 12:02:21;;;;;;;4.43;3.55;;;19.50;99.90;;;;;;9838902;30;20050;-82
2022/09/10 12:07:43;;;;;;;4.80;3.63;;;19.60;99.90;;;;;;9724847;30;20047;-83
2022/09/10 12:12:52;;;;;;;4.13;3.72;;;19.70;99.90;;;;;;9856996;30;20552;-81
2022/09/10 12:18:14;;;;;;;4.15;3.83;;;19.60;99.90;;;;;;9856742;30;20058;-82
2022/09/10 12:23:22;;;;;;;3.30;2.60;;;19.80;99.90;;;;;;9840128;30;20396;-78
2022/09/10 12:28:41;;;;;;;2.35;1.92;;;20.00;99.90;;;;;;9852385;30;20036;-84
2022/09/10 12:33:42;;;;;;;1.85;1.75;;;20.40;99.90;;;;;;9860155;30;20070;-82
2022/09/10 12:38:54;;;;;;;2.55;2.25;;;20.40;99.90;;;;;;9836785;30;20457;-82
2022/09/10 12:43:56;;;;;;;2.67;2.03;;;20.50;99.90;;;;;;9852427;30;20560;-83
2022/09/10 12:49:00;;;;;;;3.15;2.03;;;20.30;99.90;;;;;;9837126;30;20059;-84
2022/09/10 12:54:31;;;;;;;1.52;1.42;;;20.30;99.90;;;;;;9854245;30;20055;-81
2022/09/10 13:00:11;;;;;;;2.08;1.85;;;20.40;99.90;;;;;;9833857;30;20071;-81
2022/09/10 13:05:41;;;;;;;15.18;9.88;;;20.60;99.90;;;;;;9855154;30;20036;-81
2022/09/10 13:10:47;;;;;;;1.70;1.60;;;20.70;99.90;;;;;;9847756;30;20059;-81
2022/09/10 13:15:51;;;;;;;4.63;3.15;;;21.00;99.90;;;;;;9849579;30;20047;-82
2022/09/10 13:20:52;;;;;;;2.47;2.25;;;21.30;99.90;;;;;;9858123;30;20531;-81
2022/09/10 13:26:18;;;;;;;4.15;3.40;;;21.60;99.90;;;;;;9859314;30;20043;-82
2022/09/10 13:31:23;;;;;;;3.50;1.83;;;21.70;99.90;;;;;;9846433;30;20136;-82
2022/09/10 13:36:42;;;;;;;8.30;4.88;;;21.50;99.90;;;;;;9857264;30;20430;-82
2022/09/10 13:42:07;;;;;;;3.28;2.40;;;21.10;99.90;;;;;;9855505;30;20051;-82
2022/09/10 13:47:23;;;;;;;1.95;1.33;;;20.90;99.90;;;;;;9855781;30;20061;-84
2022/09/10 13:52:33;;;;;;;5.57;4.05;;;20.70;99.90;;;;;;9859156;30;20040;-82
2022/09/10 13:57:42;;;;;;;16.80;10.93;;;20.80;99.90;;;;;;9867512;30;20047;-83
2022/09/10 14:02:55;;;;;;;11.88;7.05;;;20.60;99.90;;;;;;9859083;30;20104;-83
2022/09/10 14:08:00;;;;;;;9.45;7.10;;;20.40;99.90;;;;;;9861298;30;20466;-84
2022/09/10 14:13:01;;;;;;;;;;;20.30;99.90;;;;;;9847430;30;20047;-84
2022/09/10 14:18:01;;;;;;;1.35;1.25;;;20.10;99.90;;;;;;9848058;30;19914;-83
2022/09/10 14:23:11;;;;;;;1.60;1.40;;;20.30;99.90;;;;;;9864058;30;20044;-83
2022/09/10 14:28:18;;;;;;;3.17;1.48;;;20.50;99.90;;;;;;9862222;30;20028;-81
2022/09/10 14:33:34;;;;;;;1.58;1.05;;;20.80;99.90;;;;;;9857943;30;20448;-83
2022/09/10 14:38:37;;;;;;;1.50;1.30;;;21.10;99.90;;;;;;9859488;30;20035;-83
2022/09/10 14:43:39;;;;;;;3.10;2.00;;;21.00;99.90;;;;;;9845077;30;20044;-82
2022/09/10 14:48:55;;;;;;;2.05;1.10;;;20.70;99.90;;;;;;9844984;30;20047;-84
2022/09/10 14:53:57;;;;;;;2.15;1.52;;;20.50;99.90;;;;;;9863353;30;20036;-83
2022/09/10 14:58:59;;;;;;;1.60;1.50;;;20.40;99.90;;;;;;9847679;30;20044;-83
2022/09/10 15:03:59;;;;;;;4.03;1.60;;;20.40;99.90;;;;;;9861655;30;20040;-83
2022/09/10 15:09:00;;;;;;;3.28;1.95;;;20.30;99.90;;;;;;9863040;30;20544;-82
2022/09/10 15:14:00;;;;;;;4.30;2.53;;;20.30;99.90;;;;;;9863720;30;20039;-82
2022/09/10 15:19:01;;;;;;;3.03;2.30;;;20.10;99.90;;;;;;9845600;30;20097;-83
2022/09/10 15:24:02;;;;;;;4.53;2.40;;;20.20;99.90;;;;;;9861014;30;20046;-82
2022/09/10 15:29:02;;;;;;;8.75;2.58;;;20.40;99.90;;;;;;9861668;30;20613;-83
2022/09/10 15:34:07;;;;;;;3.95;2.83;;;20.50;99.90;;;;;;9861393;30;20044;-82
2022/09/10 15:39:11;;;;;;;4.55;3.45;;;20.50;99.90;;;;;;9861773;30;20024;-83
2022/09/10 15:44:12;;;;;;;3.47;2.90;;;20.20;99.90;;;;;;9860851;30;20047;-84
2022/09/10 15:49:12;;;;;;;2.75;1.30;;;19.80;99.90;;;;;;9862436;30;20047;-83
2022/09/10 15:54:13;;;;;;;2.75;0.82;;;19.50;99.90;;;;;;9846445;30;20082;-82
2022/09/10 15:59:15;;;;;;;1.92;0.82;;;19.00;99.90;;;;;;9861804;30;20051;-84
2022/09/10 16:04:15;;;;;;;1.98;1.50;;;18.50;99.90;;;;;;9859078;30;20036;-82
2022/09/10 16:09:27;;;;;;;3.47;1.50;;;18.00;99.90;;;;;;9844322;30;20456;-81
2022/09/10 16:14:30;;;;;;;3.17;1.70;;;17.60;99.90;;;;;;9845253;30;20048;-81
2022/09/10 16:19:31;;;;;;;2.95;1.60;;;17.50;99.90;;;;;;9858652;30;20054;-81
2022/09/10 16:24:32;;;;;;;2.45;1.38;;;17.40;99.90;;;;;;9861618;30;20358;-81
2022/09/10 16:29:32;;;;;;;2.45;1.73;;;17.20;99.90;;;;;;9861364;30;20032;-82
2022/09/10 16:34:33;;;;;;;2.92;2.03;;;16.90;99.90;;;;;;9858575;30;20040;-81
2022/09/10 16:39:33;;;;;;;5.90;3.78;;;16.70;99.90;;;;;;9860599;30;20068;-82
2022/09/10 16:44:34;;;;;;;32.03;15.43;;;16.60;99.90;;;;;;9856677;30;20042;-82
2022/09/10 16:49:35;;;;;;;30.63;13.52;;;16.50;99.90;;;;;;9859613;30;20433;-80
2022/09/10 16:54:37;;;;;;;46.97;21.00;;;16.10;99.90;;;;;;9859354;30;20579;-81
2022/09/10 16:59:37;;;;;;;66.68;25.83;;;15.90;99.90;;;;;;9857837;30;20068;-82
2022/09/10 17:04:38;;;;;;;80.60;35.95;;;15.60;99.90;;;;;;9859619;30;20056;-81
2022/09/10 17:09:38;;;;;;;63.08;26.52;;;15.50;99.90;;;;;;9860238;30;20041;-81
2022/09/10 17:14:39;;;;;;;30.15;16.15;;;15.40;99.90;;;;;;9855419;30;20714;-81
2022/09/10 17:19:41;;;;;;;18.20;8.82;;;15.30;99.90;;;;;;9857137;30;20130;-80
2022/09/10 17:24:42;;;;;;;11.18;6.45;;;15.20;99.90;;;;;;9856820;30;20518;-82
2022/09/10 17:29:42;;;;;;;14.20;9.55;;;15.10;99.90;;;;;;9860360;30;20260;-81
2022/09/10 17:34:43;;;;;;;9.77;7.57;;;15.00;99.90;;;;;;9865166;30;20135;-82
2022/09/10 17:39:43;;;;;;;8.50;5.97;;;14.90;99.90;;;;;;9870979;30;20171;-82
2022/09/10 17:44:44;;;;;;;7.47;5.40;;;14.90;99.90;;;;;;9865750;30;20087;-81
2022/09/10 17:49:45;;;;;;;6.90;5.63;;;14.90;99.90;;;;;;9865379;30;20043;-82
2022/09/10 17:54:45;;;;;;;9.80;6.72;;;14.70;99.90;;;;;;9864406;30;20692;-81
2022/09/10 17:59:46;;;;;;;12.25;8.30;;;14.50;99.90;;;;;;9862922;30;20068;-82
2022/09/10 18:04:50;;;;;;;12.45;7.25;;;14.40;99.90;;;;;;9868832;30;20035;-82
2022/09/10 18:09:50;;;;;;;10.93;8.10;;;14.30;99.90;;;;;;9846246;30;20582;-81
2022/09/10 18:14:51;;;;;;;16.23;9.88;;;14.30;99.90;;;;;;9849097;30;20104;-81
2022/09/10 18:19:52;;;;;;;13.90;9.15;;;14.40;99.90;;;;;;9864676;30;20097;-82
2022/09/10 18:24:53;;;;;;;23.60;15.13;;;14.50;99.90;;;;;;9862453;30;20041;-81
2022/09/10 18:29:53;;;;;;;23.10;15.80;;;14.50;99.90;;;;;;9860755;30;20043;-82
2022/09/10 18:34:54;;;;;;;17.90;13.27;;;14.70;99.90;;;;;;9860257;30;20044;-82
2022/09/10 18:39:55;;;;;;;20.42;12.75;;;14.80;99.90;;;;;;9862603;30;20393;-82
2022/09/10 18:44:55;;;;;;;15.93;11.60;;;14.70;99.90;;;;;;9861722;30;20074;-82
2022/09/10 18:49:57;;;;;;;17.23;12.85;;;14.60;99.90;;;;;;9861496;30;20080;-83
2022/09/10 18:54:58;;;;;;;21.40;13.38;;;14.70;99.90;;;;;;9860226;30;20035;-82
2022/09/10 18:59:59;;;;;;;17.52;12.00;;;14.70;99.90;;;;;;9861827;30;20050;-80
2022/09/10 19:05:01;;;;;;;16.50;12.10;;;14.70;99.90;;;;;;9862890;30;20027;-81
2022/09/10 19:10:03;;;;;;;18.83;12.63;;;14.60;99.90;;;;;;9860587;30;20512;-82
2022/09/10 19:15:04;;;;;;;18.67;13.93;;;14.50;99.90;;;;;;9861247;30;20039;-82
2022/09/10 19:20:05;;;;;;;21.92;15.30;;;14.30;99.90;;;;;;9861746;30;20396;-81
2022/09/10 19:25:06;;;;;;;21.00;14.40;;;14.20;99.90;;;;;;9861577;30;20039;-81
2022/09/10 19:30:07;;;;;;;30.27;17.98;;;14.20;99.90;;;;;;9862423;30;20042;-81
2022/09/10 19:35:09;;;;;;;24.40;16.50;;;14.00;99.90;;;;;;9845185;30;20036;-83
2022/09/10 19:40:10;;;;;;;33.00;20.40;;;13.90;99.90;;;;;;9861806;30;20101;-82
2022/09/10 19:45:11;;;;;;;30.63;20.73;;;13.90;99.90;;;;;;9860958;30;20051;-81
2022/09/10 19:50:12;;;;;;;38.78;23.92;;;13.80;99.90;;;;;;9861041;30;20031;-82
2022/09/10 19:55:12;;;;;;;39.40;25.65;;;14.00;99.90;;;;;;9861835;30;20122;-82
2022/09/10 20:00:15;;;;;;;39.92;24.20;;;14.00;99.90;;;;;;9860696;30;20055;-82
2022/09/10 20:05:16;;;;;;;35.67;24.60;;;14.00;99.90;;;;;;9855888;30;20032;-81
2022/09/10 20:10:17;;;;;;;40.95;25.58;;;13.80;99.90;;;;;;9860870;30;20401;-82
2022/09/10 20:15:18;;;;;;;36.25;25.50;;;13.80;99.90;;;;;;9857018;30;20048;-82
2022/09/10 20:20:19;;;;;;;42.55;25.75;;;13.70;99.90;;;;;;9857099;30;20118;-82
2022/09/10 20:25:19;;;;;;;41.65;26.45;;;13.60;99.90;;;;;;9860377;30;20031;-81
2022/09/10 20:30:21;;;;;;;35.85;25.10;;;13.50;99.90;;;;;;9860093;30;20047;-81
2022/09/10 20:35:22;;;;;;;52.45;30.67;;;13.50;99.90;;;;;;9857620;30;20056;-82
2022/09/10 20:40:23;;;;;;;68.22;35.40;;;13.50;99.90;;;;;;9859641;30;20051;-82
2022/09/10 20:45:23;;;;;;;56.65;31.73;;;13.50;99.90;;;;;;9859791;30;20492;-81
2022/09/10 20:50:26;;;;;;;41.90;26.65;;;13.30;99.90;;;;;;9859133;30;20381;-81
2022/09/10 20:55:26;;;;;;;44.72;27.98;;;13.30;99.90;;;;;;9851356;30;20042;-81
2022/09/10 21:00:27;;;;;;;59.13;32.75;;;13.20;99.90;;;;;;9842872;30;20056;-81
2022/09/10 21:05:28;;;;;;;50.22;30.98;;;13.20;99.90;;;;;;9857869;30;20417;-81
2022/09/10 21:10:29;;;;;;;42.58;28.65;;;13.20;99.90;;;;;;9843014;30;20040;-81
2022/09/10 21:15:29;;;;;;;52.83;31.80;;;13.10;99.90;;;;;;9858437;30;20455;-81
2022/09/10 21:20:30;;;;;;;49.70;29.30;;;13.10;99.90;;;;;;9857651;30;20044;-81
2022/09/10 21:25:31;;;;;;;61.28;32.85;;;13.10;99.90;;;;;;9857826;30;20777;-81
2022/09/10 21:30:32;;;;;;;59.03;32.83;;;13.10;99.90;;;;;;9854637;30;20032;-81
2022/09/10 21:35:33;;;;;;;39.30;25.88;;;13.00;99.90;;;;;;9857824;30;20043;-81
2022/09/10 21:40:33;;;;;;;66.03;35.00;;;13.10;99.90;;;;;;9858728;30;20046;-82
2022/09/10 21:45:35;;;;;;;52.75;32.35;;;13.10;99.90;;;;;;9858224;30;20063;-82
2022/09/10 21:50:36;;;;;;;46.67;30.58;;;13.20;99.90;;;;;;9858948;30;20028;-82
2022/09/10 21:55:36;;;;;;;44.25;29.45;;;13.40;99.90;;;;;;9858982;30;20039;-83
2022/09/10 22:00:37;;;;;;;45.00;30.35;;;13.50;99.90;;;;;;9851161;30;20512;-82
2022/09/10 22:05:37;;;;;;;55.60;35.78;;;13.60;99.90;;;;;;9837882;30;20050;-83
2022/09/10 22:10:42;;;;;;;55.40;35.97;;;13.80;99.90;;;;;;9858398;30;20085;-83
2022/09/10 22:15:43;;;;;;;54.63;35.63;;;13.80;99.90;;;;;;9860332;30;20027;-83
2022/09/10 22:20:44;;;;;;;57.75;34.65;;;13.90;99.90;;;;;;9865172;30;20836;-83
2022/09/10 22:25:44;;;;;;;43.92;29.38;;;13.80;99.90;;;;;;9849100;30;20046;-82
2022/09/10 22:30:45;;;;;;;49.38;31.25;;;13.80;99.90;;;;;;9847384;30;20032;-83
2022/09/10 22:35:45;;;;;;;39.60;26.92;;;13.80;99.90;;;;;;9847255;30;20131;-83
2022/09/10 22:40:46;;;;;;;39.33;26.25;;;13.90;99.90;;;;;;9863447;30;20083;-83
2022/09/10 22:45:47;;;;;;;38.13;24.60;;;13.90;99.90;;;;;;9847346;30;20059;-83
2022/09/10 22:50:48;;;;;;;33.00;20.77;;;14.00;99.90;;;;;;9863543;30;20051;-82
2022/09/10 22:55:49;;;;;;;33.53;21.58;;;14.00;99.90;;;;;;9863165;30;20569;-82
2022/09/10 23:00:50;;;;;;;30.95;20.60;;;14.00;99.90;;;;;;9862159;30;20047;-82
2022/09/10 23:06:20;;;;;;;28.33;19.35;;;14.00;99.90;;;;;;9845771;30;20043;-83
2022/09/10 23:11:24;;;;;;;29.05;19.48;;;14.10;99.90;;;;;;9860288;30;20055;-83
2022/09/10 23:16:27;;;;;;;33.17;21.38;;;14.10;99.90;;;;;;9861866;30;20151;-83
2022/09/10 23:21:30;;;;;;;28.13;19.33;;;14.10;99.90;;;;;;9859822;30;20050;-82
2022/09/10 23:26:31;;;;;;;29.63;19.63;;;14.10;99.90;;;;;;9858833;30;20075;-83
2022/09/10 23:31:34;;;;;;;32.58;18.30;;;14.10;99.90;;;;;;9862203;30;20580;-83
2022/09/10 23:36:37;;;;;;;25.08;15.07;;;14.00;99.90;;;;;;9862315;30;20473;-82
2022/09/10 23:41:38;;;;;;;24.50;15.07;;;14.00;99.90;;;;;;9861582;30;20133;-83
2022/09/10 23:46:38;;;;;;;23.88;14.95;;;13.90;99.90;;;;;;9861993;30;20060;-83
2022/09/10 23:51:39;;;;;;;29.58;16.85;;;13.90;99.90;;;;;;9858946;30;20105;-83
2022/09/10 23:56:40;;;;;;;28.05;17.63;;;13.90;99.90;;;;;;9861690;30;20409;-82
